sensor_id;sensor_type;location;lat;lon;timestamp;pressure;altitude;pressure_sealevel;temperature;humidity
63090;BME280;49174;43.198;27.824;2022-07-29T00:00:38;101636.88;;;20.45;89.05
63090;BME280;49174;43.198;27.824;2022-07-29T00:03:05;101644.50;;;20.43;89.40
63090;BME280;49174;43.198;27.824;2022-07-29T00:05:31;101642.59;;;20.43;89.32
63090;BME280;49174;43.198;27.824;2022-07-29T00:07:56;101642.59;;;20.43;89.20
63090;BME280;49174;43.198;27.824;2022-07-29T00:10:22;101638.19;;;20.42;88.95
63090;BME280;49174;43.198;27.824;2022-07-29T00:12:47;101640.31;;;20.40;88.91
63090;BME280;49174;43.198;27.824;2022-07-29T00:15:13;101643.28;;;20.39;88.80
63090;BME280;49174;43.198;27.824;2022-07-29T00:17:38;101640.81;;;20.37;89.08
63090;BME280;49174;43.198;27.824;2022-07-29T00:20:05;101648.44;;;20.35;88.68
63090;BME280;49174;43.198;27.824;2022-07-29T00:22:30;101642.59;;;20.31;88.90
63090;BME280;49174;43.198;27.824;2022-07-29T00:24:56;101646.31;;;20.25;89.29
63090;BME280;49174;43.198;27.824;2022-07-29T00:27:22;101646.53;;;20.24;89.43
63090;BME280;49174;43.198;27.824;2022-07-29T00:29:47;101637.22;;;20.25;88.85
63090;BME280;49174;43.198;27.824;2022-07-29T00:32:13;101643.78;;;20.24;88.63
63090;BME280;49174;43.198;27.824;2022-07-29T00:34:39;101652.25;;;20.22;88.27
63090;BME280;49174;43.198;27.824;2022-07-29T00:37:23;101647.03;;;20.21;87.68
63090;BME280;49174;43.198;27.824;2022-07-29T00:39:48;101646.66;;;20.17;88.08
63090;BME280;49174;43.198;27.824;2022-07-29T00:42:14;101649.03;;;20.14;87.72
63090;BME280;49174;43.198;27.824;2022-07-29T00:44:41;101646.78;;;20.11;87.18
63090;BME280;49174;43.198;27.824;2022-07-29T00:47:07;101638.44;;;20.05;87.61
63090;BME280;49174;43.198;27.824;2022-07-29T00:49:34;101639.16;;;20.01;87.39
63090;BME280;49174;43.198;27.824;2022-07-29T00:52:04;101642.38;;;19.98;88.15
63090;BME280;49174;43.198;27.824;2022-07-29T00:54:30;101640.94;;;19.95;88.15
63090;BME280;49174;43.198;27.824;2022-07-29T00:57:00;101643.69;;;19.95;89.30
63090;BME280;49174;43.198;27.824;2022-07-29T00:59:27;101640.94;;;19.95;90.14
63090;BME280;49174;43.198;27.824;2022-07-29T01:01:53;101645.81;;;19.93;90.58
63090;BME280;49174;43.198;27.824;2022-07-29T01:04:20;101647.47;;;19.94;90.99
63090;BME280;49174;43.198;27.824;2022-07-29T01:06:47;101645.22;;;19.91;91.71
63090;BME280;49174;43.198;27.824;2022-07-29T01:09:14;101645.22;;;19.91;92.13
63090;BME280;49174;43.198;27.824;2022-07-29T01:11:42;101648.34;;;19.95;93.10
63090;BME280;49174;43.198;27.824;2022-07-29T01:14:09;101644.88;;;19.99;93.91
63090;BME280;49174;43.198;27.824;2022-07-29T01:16:56;101632.59;;;20.02;93.18
63090;BME280;49174;43.198;27.824;2022-07-29T01:25:10;101622.38;;;20.09;93.97
63090;BME280;49174;43.198;27.824;2022-07-29T01:30:38;101630.59;;;20.09;92.98
63090;BME280;49174;43.198;27.824;2022-07-29T01:33:07;101625.81;;;20.04;92.94
63090;BME280;49174;43.198;27.824;2022-07-29T01:35:38;101624.88;;;19.99;93.72
63090;BME280;49174;43.198;27.824;2022-07-29T01:38:12;101629.75;;;19.97;93.83
63090;BME280;49174;43.198;27.824;2022-07-29T01:40:49;101630.91;;;19.89;93.85
63090;BME280;49174;43.198;27.824;2022-07-29T01:43:19;101625.69;;;19.88;94.05
63090;BME280;49174;43.198;27.824;2022-07-29T01:45:53;101625.22;;;19.79;94.92
63090;BME280;49174;43.198;27.824;2022-07-29T01:48:26;101622.47;;;19.79;94.64
63090;BME280;49174;43.198;27.824;2022-07-29T01:51:02;101628.19;;;19.77;94.86
63090;BME280;49174;43.198;27.824;2022-07-29T01:53:54;101623.44;;;19.73;94.72
63090;BME280;49174;43.198;27.824;2022-07-29T01:56:23;101625.56;;;19.71;94.62
63090;BME280;49174;43.198;27.824;2022-07-29T01:58:49;101620.09;;;19.71;94.18
63090;BME280;49174;43.198;27.824;2022-07-29T02:01:17;101621.41;;;19.68;94.52
63090;BME280;49174;43.198;27.824;2022-07-29T02:03:45;101620.78;;;19.66;94.36
63090;BME280;49174;43.198;27.824;2022-07-29T02:06:12;101615.09;;;19.68;94.52
63090;BME280;49174;43.198;27.824;2022-07-29T02:08:39;101622.22;;;19.69;94.28
63090;BME280;49174;43.198;27.824;2022-07-29T02:11:06;101615.09;;;19.68;93.62
63090;BME280;49174;43.198;27.824;2022-07-29T02:13:34;101624.78;;;19.63;93.60
63090;BME280;49174;43.198;27.824;2022-07-29T02:16:02;101618.28;;;19.64;93.65
63090;BME280;49174;43.198;27.824;2022-07-29T02:18:31;101617.06;;;19.60;93.49
63090;BME280;49174;43.198;27.824;2022-07-29T02:20:59;101614.44;;;19.54;93.79
63090;BME280;49174;43.198;27.824;2022-07-29T02:23:26;101607.28;;;19.53;93.75
63090;BME280;49174;43.198;27.824;2022-07-29T02:25:56;101598.84;;;19.54;93.95
63090;BME280;49174;43.198;27.824;2022-07-29T02:28:26;101605.75;;;19.57;93.29
63090;BME280;49174;43.198;27.824;2022-07-29T02:30:53;101614.78;;;19.57;93.22
63090;BME280;49174;43.198;27.824;2022-07-29T02:33:21;101608.50;;;19.57;93.30
63090;BME280;49174;43.198;27.824;2022-07-29T02:35:49;101618.84;;;19.55;93.10
63090;BME280;49174;43.198;27.824;2022-07-29T02:38:16;101615.50;;;19.53;93.12
63090;BME280;49174;43.198;27.824;2022-07-29T02:41:16;101625.38;;;19.54;92.49
63090;BME280;49174;43.198;27.824;2022-07-29T02:43:45;101621.44;;;19.50;92.94
63090;BME280;49174;43.198;27.824;2022-07-29T02:46:14;101627.16;;;19.48;92.53
63090;BME280;49174;43.198;27.824;2022-07-29T02:48:51;101623.00;;;19.46;92.31
63090;BME280;49174;43.198;27.824;2022-07-29T02:51:26;101632.28;;;19.45;92.59
63090;BME280;49174;43.198;27.824;2022-07-29T02:53:54;101631.41;;;19.44;92.34
63090;BME280;49174;43.198;27.824;2022-07-29T02:56:25;101629.53;;;19.45;92.68
63090;BME280;49174;43.198;27.824;2022-07-29T02:58:58;101629.75;;;19.43;92.51
63090;BME280;49174;43.198;27.824;2022-07-29T03:01:26;101627.72;;;19.38;93.08
63090;BME280;49174;43.198;27.824;2022-07-29T03:03:54;101635.47;;;19.41;92.96
63090;BME280;49174;43.198;27.824;2022-07-29T03:06:23;101634.16;;;19.44;93.02
63090;BME280;49174;43.198;27.824;2022-07-29T03:08:51;101633.09;;;19.45;92.93
63090;BME280;49174;43.198;27.824;2022-07-29T03:11:17;101640.25;;;19.46;94.18
63090;BME280;49174;43.198;27.824;2022-07-29T03:13:43;101638.59;;;19.45;93.80
63090;BME280;49174;43.198;27.824;2022-07-29T03:16:10;101640.72;;;19.43;93.77
63090;BME280;49174;43.198;27.824;2022-07-29T03:18:37;101641.78;;;19.42;93.95
63090;BME280;49174;43.198;27.824;2022-07-29T03:21:03;101646.53;;;19.47;94.38
63090;BME280;49174;43.198;27.824;2022-07-29T03:23:29;101649.53;;;19.45;94.05
63090;BME280;49174;43.198;27.824;2022-07-29T03:25:56;101652.03;;;19.47;94.19
63090;BME280;49174;43.198;27.824;2022-07-29T03:28:22;101656.81;;;19.51;93.94
63090;BME280;49174;43.198;27.824;2022-07-29T03:30:48;101655.72;;;19.52;93.38
63090;BME280;49174;43.198;27.824;2022-07-29T03:33:15;101662.03;;;19.53;93.68
63090;BME280;49174;43.198;27.824;2022-07-29T03:35:40;101664.06;;;19.57;93.47
63090;BME280;49174;43.198;27.824;2022-07-29T03:38:06;101661.94;;;19.59;93.06
63090;BME280;49174;43.198;27.824;2022-07-29T03:40:42;101669.19;;;19.54;93.31
63090;BME280;49174;43.198;27.824;2022-07-29T03:43:11;101664.53;;;19.54;93.81
63090;BME280;49174;43.198;27.824;2022-07-29T03:45:38;101669.69;;;19.62;93.65
63090;BME280;49174;43.198;27.824;2022-07-29T03:48:08;101670.91;;;19.67;93.23
63090;BME280;49174;43.198;27.824;2022-07-29T03:50:35;101678.19;;;19.73;93.45
63090;BME280;49174;43.198;27.824;2022-07-29T03:53:02;101678.56;;;19.76;93.68
63090;BME280;49174;43.198;27.824;2022-07-29T03:55:29;101675.94;;;19.81;93.56
63090;BME280;49174;43.198;27.824;2022-07-29T03:57:57;101675.47;;;19.84;93.60
63090;BME280;49174;43.198;27.824;2022-07-29T04:00:25;101675.81;;;19.88;93.12
63090;BME280;49174;43.198;27.824;2022-07-29T04:02:52;101660.00;;;19.90;93.29
63090;BME280;49174;43.198;27.824;2022-07-29T04:05:18;101674.66;;;19.96;92.98
63090;BME280;49174;43.198;27.824;2022-07-29T04:07:44;101678.56;;;20.00;93.03
63090;BME280;49174;43.198;27.824;2022-07-29T04:10:10;101673.69;;;20.02;93.14
63090;BME280;49174;43.198;27.824;2022-07-29T04:12:35;101668.56;;;20.05;92.39
63090;BME280;49174;43.198;27.824;2022-07-29T04:15:03;101670.38;;;20.12;92.25
63090;BME280;49174;43.198;27.824;2022-07-29T04:17:29;101674.06;;;20.17;91.67
63090;BME280;49174;43.198;27.824;2022-07-29T04:19:54;101664.78;;;20.18;91.97
63090;BME280;49174;43.198;27.824;2022-07-29T04:22:20;101670.13;;;20.25;91.29
63090;BME280;49174;43.198;27.824;2022-07-29T04:24:45;101666.66;;;20.29;91.51
63090;BME280;49174;43.198;27.824;2022-07-29T04:27:11;101666.78;;;20.35;91.26
63090;BME280;49174;43.198;27.824;2022-07-29T04:29:37;101675.34;;;20.38;91.34
63090;BME280;49174;43.198;27.824;2022-07-29T04:32:02;101674.41;;;20.44;90.99
63090;BME280;49174;43.198;27.824;2022-07-29T04:34:28;101671.16;;;20.47;90.90
63090;BME280;49174;43.198;27.824;2022-07-29T04:36:54;101671.28;;;20.52;90.33
63090;BME280;49174;43.198;27.824;2022-07-29T04:39:20;101667.03;;;20.57;91.47
63090;BME280;49174;43.198;27.824;2022-07-29T04:41:46;101662.22;;;20.64;90.47
63090;BME280;49174;43.198;27.824;2022-07-29T04:44:12;101663.53;;;20.73;90.30
63090;BME280;49174;43.198;27.824;2022-07-29T04:46:38;101659.50;;;20.75;90.58
63090;BME280;49174;43.198;27.824;2022-07-29T04:49:04;101671.75;;;20.85;90.86
63090;BME280;49174;43.198;27.824;2022-07-29T04:51:30;101658.69;;;20.92;91.16
63090;BME280;49174;43.198;27.824;2022-07-29T04:53:55;101664.66;;;21.01;90.61
63090;BME280;49174;43.198;27.824;2022-07-29T04:56:21;101662.59;;;21.08;90.51
63090;BME280;49174;43.198;27.824;2022-07-29T04:58:46;101654.47;;;21.13;90.22
63090;BME280;49174;43.198;27.824;2022-07-29T05:01:13;101659.56;;;21.21;89.64
63090;BME280;49174;43.198;27.824;2022-07-29T05:03:39;101652.25;;;21.27;88.98
63090;BME280;49174;43.198;27.824;2022-07-29T05:06:05;101649.09;;;21.35;89.27
63090;BME280;49174;43.198;27.824;2022-07-29T05:08:30;101650.66;;;21.42;88.93
63090;BME280;49174;43.198;27.824;2022-07-29T05:10:56;101651.56;;;21.48;88.53
63090;BME280;49174;43.198;27.824;2022-07-29T05:13:47;101656.41;;;21.58;87.48
63090;BME280;49174;43.198;27.824;2022-07-29T05:16:13;101645.00;;;21.66;87.90
63090;BME280;49174;43.198;27.824;2022-07-29T05:18:38;101645.69;;;21.73;87.34
63090;BME280;49174;43.198;27.824;2022-07-29T05:21:07;101649.41;;;21.84;86.69
63090;BME280;49174;43.198;27.824;2022-07-29T05:23:33;101643.50;;;21.92;86.94
63090;BME280;49174;43.198;27.824;2022-07-29T05:25:58;101642.00;;;22.01;86.18
63090;BME280;49174;43.198;27.824;2022-07-29T05:28:24;101646.22;;;22.09;86.31
63090;BME280;49174;43.198;27.824;2022-07-29T05:30:49;101651.91;;;22.19;86.38
63090;BME280;49174;43.198;27.824;2022-07-29T05:33:15;101643.22;;;22.27;86.18
63090;BME280;49174;43.198;27.824;2022-07-29T05:35:40;101644.47;;;22.37;86.01
63090;BME280;49174;43.198;27.824;2022-07-29T05:38:07;101643.50;;;22.48;85.84
63090;BME280;49174;43.198;27.824;2022-07-29T05:40:33;101646.66;;;22.57;85.48
63090;BME280;49174;43.198;27.824;2022-07-29T05:43:01;101646.19;;;22.65;85.01
63090;BME280;49174;43.198;27.824;2022-07-29T05:45:26;101645.22;;;22.76;84.80
63090;BME280;49174;43.198;27.824;2022-07-29T05:47:52;101645.63;;;22.85;83.66
63090;BME280;49174;43.198;27.824;2022-07-29T05:50:18;101648.50;;;22.95;83.75
63090;BME280;49174;43.198;27.824;2022-07-29T05:52:43;101648.66;;;23.05;82.43
63090;BME280;49174;43.198;27.824;2022-07-29T05:55:09;101649.28;;;23.12;82.11
63090;BME280;49174;43.198;27.824;2022-07-29T05:57:35;101648.78;;;23.20;82.05
63090;BME280;49174;43.198;27.824;2022-07-29T06:00:00;101655.81;;;23.33;81.43
63090;BME280;49174;43.198;27.824;2022-07-29T06:02:26;101651.81;;;23.46;79.96
63090;BME280;49174;43.198;27.824;2022-07-29T06:04:51;101656.00;;;23.54;79.80
63090;BME280;49174;43.198;27.824;2022-07-29T06:07:17;101656.94;;;23.64;78.76
63090;BME280;49174;43.198;27.824;2022-07-29T06:09:42;101657.88;;;23.75;78.09
63090;BME280;49174;43.198;27.824;2022-07-29T06:12:08;101659.63;;;23.86;76.08
63090;BME280;49174;43.198;27.824;2022-07-29T06:14:34;101654.78;;;23.99;75.29
63090;BME280;49174;43.198;27.824;2022-07-29T06:17:00;101658.16;;;24.11;73.46
63090;BME280;49174;43.198;27.824;2022-07-29T06:19:26;101653.81;;;24.25;73.56
63090;BME280;49174;43.198;27.824;2022-07-29T06:21:52;101659.75;;;24.44;72.53
63090;BME280;49174;43.198;27.824;2022-07-29T06:24:18;101654.34;;;24.65;71.02
63090;BME280;49174;43.198;27.824;2022-07-29T06:26:44;101650.56;;;24.86;70.26
63090;BME280;49174;43.198;27.824;2022-07-29T06:29:10;101648.97;;;25.06;69.00
63090;BME280;49174;43.198;27.824;2022-07-29T06:31:36;101643.50;;;25.31;66.35
63090;BME280;49174;43.198;27.824;2022-07-29T06:34:02;101641.31;;;25.54;65.82
63090;BME280;49174;43.198;27.824;2022-07-29T06:36:27;101644.63;;;25.76;64.47
63090;BME280;49174;43.198;27.824;2022-07-29T06:38:53;101646.06;;;25.99;64.59
63090;BME280;49174;43.198;27.824;2022-07-29T06:41:18;101646.81;;;26.25;63.33
63090;BME280;49174;43.198;27.824;2022-07-29T06:43:45;101652.28;;;26.46;61.30
63090;BME280;49174;43.198;27.824;2022-07-29T06:46:13;101645.59;;;26.67;60.85
63090;BME280;49174;43.198;27.824;2022-07-29T06:48:40;101641.06;;;26.92;59.87
63090;BME280;49174;43.198;27.824;2022-07-29T06:51:08;101643.16;;;27.10;59.00
63090;BME280;49174;43.198;27.824;2022-07-29T06:53:34;101635.56;;;27.31;56.99
63090;BME280;49174;43.198;27.824;2022-07-29T06:56:00;101634.00;;;27.54;56.14
63090;BME280;49174;43.198;27.824;2022-07-29T06:58:27;101631.03;;;27.75;57.50
63090;BME280;49174;43.198;27.824;2022-07-29T07:00:53;101626.94;;;28.01;57.01
63090;BME280;49174;43.198;27.824;2022-07-29T07:03:18;101626.66;;;28.27;55.10
63090;BME280;49174;43.198;27.824;2022-07-29T07:05:46;101635.91;;;28.46;54.01
63090;BME280;49174;43.198;27.824;2022-07-29T07:08:12;101623.44;;;28.68;54.30
63090;BME280;49174;43.198;27.824;2022-07-29T07:10:38;101633.75;;;28.86;53.30
63090;BME280;49174;43.198;27.824;2022-07-29T07:13:04;101631.81;;;29.06;52.08
63090;BME280;49174;43.198;27.824;2022-07-29T07:15:30;101626.56;;;29.23;49.01
63090;BME280;49174;43.198;27.824;2022-07-29T07:17:56;101618.22;;;29.42;50.10
63090;BME280;49174;43.198;27.824;2022-07-29T07:20:23;101620.44;;;29.59;49.99
63090;BME280;49174;43.198;27.824;2022-07-29T07:22:49;101634.63;;;29.76;48.89
63090;BME280;49174;43.198;27.824;2022-07-29T07:25:15;101629.28;;;29.94;48.90
63090;BME280;49174;43.198;27.824;2022-07-29T07:27:43;101636.13;;;30.15;47.51
63090;BME280;49174;43.198;27.824;2022-07-29T07:30:09;101633.59;;;30.33;46.98
63090;BME280;49174;43.198;27.824;2022-07-29T07:32:35;101629.97;;;30.46;45.13
63090;BME280;49174;43.198;27.824;2022-07-29T07:35:04;101640.28;;;30.59;44.90
63090;BME280;49174;43.198;27.824;2022-07-29T07:37:30;101628.81;;;30.75;45.67
63090;BME280;49174;43.198;27.824;2022-07-29T07:39:55;101636.94;;;30.99;44.47
63090;BME280;49174;43.198;27.824;2022-07-29T07:42:21;101637.63;;;31.18;43.52
63090;BME280;49174;43.198;27.824;2022-07-29T07:44:47;101635.69;;;31.41;40.14
63090;BME280;49174;43.198;27.824;2022-07-29T07:47:14;101642.53;;;31.57;40.74
63090;BME280;49174;43.198;27.824;2022-07-29T07:49:40;101637.88;;;31.75;40.92
63090;BME280;49174;43.198;27.824;2022-07-29T07:52:06;101638.84;;;31.93;42.14
63090;BME280;49174;43.198;27.824;2022-07-29T07:54:32;101638.09;;;32.10;39.95
63090;BME280;49174;43.198;27.824;2022-07-29T07:56:57;101635.38;;;32.27;41.64
63090;BME280;49174;43.198;27.824;2022-07-29T07:59:23;101642.38;;;32.47;40.73
63090;BME280;49174;43.198;27.824;2022-07-29T08:01:49;101641.44;;;32.61;40.48
63090;BME280;49174;43.198;27.824;2022-07-29T08:04:15;101641.44;;;32.61;39.13
63090;BME280;49174;43.198;27.824;2022-07-29T08:06:41;101639.16;;;32.71;39.22
63090;BME280;49174;43.198;27.824;2022-07-29T08:09:07;101637.53;;;32.79;39.63
63090;BME280;49174;43.198;27.824;2022-07-29T08:11:33;101647.41;;;32.85;38.22
63090;BME280;49174;43.198;27.824;2022-07-29T08:13:58;101641.34;;;33.01;39.72
63090;BME280;49174;43.198;27.824;2022-07-29T08:16:26;101640.22;;;33.10;38.13
63090;BME280;49174;43.198;27.824;2022-07-29T08:18:52;101628.69;;;33.21;38.98
63090;BME280;49174;43.198;27.824;2022-07-29T08:21:22;101640.53;;;33.26;37.58
63090;BME280;49174;43.198;27.824;2022-07-29T08:23:48;101638.75;;;33.22;36.35
63090;BME280;49174;43.198;27.824;2022-07-29T08:26:41;101644.50;;;33.25;36.27
63090;BME280;49174;43.198;27.824;2022-07-29T08:29:07;101638.75;;;33.30;36.24
63090;BME280;49174;43.198;27.824;2022-07-29T08:31:32;101633.78;;;33.36;36.15
63090;BME280;49174;43.198;27.824;2022-07-29T08:33:58;101637.75;;;33.44;36.13
63090;BME280;49174;43.198;27.824;2022-07-29T08:36:25;101638.41;;;33.41;35.99
63090;BME280;49174;43.198;27.824;2022-07-29T08:38:52;101639.41;;;33.53;35.84
63090;BME280;49174;43.198;27.824;2022-07-29T08:41:18;101629.50;;;33.47;36.01
63090;BME280;49174;43.198;27.824;2022-07-29T08:43:47;101631.31;;;33.69;35.81
63090;BME280;49174;43.198;27.824;2022-07-29T08:46:12;101626.50;;;33.78;35.29
63090;BME280;49174;43.198;27.824;2022-07-29T08:48:40;101631.41;;;33.90;35.96
63090;BME280;49174;43.198;27.824;2022-07-29T08:51:07;101625.94;;;34.02;35.00
63090;BME280;49174;43.198;27.824;2022-07-29T08:53:33;101618.03;;;33.96;34.15
63090;BME280;49174;43.198;27.824;2022-07-29T08:55:59;101620.84;;;33.96;34.86
63090;BME280;49174;43.198;27.824;2022-07-29T08:58:26;101614.38;;;34.04;34.51
63090;BME280;49174;43.198;27.824;2022-07-29T09:00:53;101612.94;;;33.98;34.20
63090;BME280;49174;43.198;27.824;2022-07-29T09:03:20;101606.31;;;34.11;36.80
63090;BME280;49174;43.198;27.824;2022-07-29T09:05:48;101612.81;;;34.33;35.31
63090;BME280;49174;43.198;27.824;2022-07-29T09:08:15;101615.41;;;34.38;35.04
63090;BME280;49174;43.198;27.824;2022-07-29T09:10:41;101610.97;;;34.37;35.62
63090;BME280;49174;43.198;27.824;2022-07-29T09:13:06;101610.09;;;34.45;35.81
63090;BME280;49174;43.198;27.824;2022-07-29T09:15:32;101602.66;;;34.58;35.10
63090;BME280;49174;43.198;27.824;2022-07-29T09:17:58;101602.16;;;34.77;34.25
63090;BME280;49174;43.198;27.824;2022-07-29T09:20:25;101597.66;;;34.84;35.19
63090;BME280;49174;43.198;27.824;2022-07-29T09:22:52;101597.25;;;34.95;34.11
63090;BME280;49174;43.198;27.824;2022-07-29T09:25:38;101594.38;;;35.03;33.96
63090;BME280;49174;43.198;27.824;2022-07-29T09:28:11;101585.47;;;35.01;34.06
63090;BME280;49174;43.198;27.824;2022-07-29T09:30:58;101591.91;;;35.02;32.91
63090;BME280;49174;43.198;27.824;2022-07-29T09:33:31;101583.66;;;35.05;32.70
63090;BME280;49174;43.198;27.824;2022-07-29T09:36:03;101589.47;;;35.00;32.41
63090;BME280;49174;43.198;27.824;2022-07-29T09:38:29;101586.53;;;34.97;32.62
63090;BME280;49174;43.198;27.824;2022-07-29T09:40:59;101586.97;;;34.99;33.10
63090;BME280;49174;43.198;27.824;2022-07-29T09:43:25;101587.47;;;35.01;31.92
63090;BME280;49174;43.198;27.824;2022-07-29T09:45:50;101583.31;;;34.86;32.54
63090;BME280;49174;43.198;27.824;2022-07-29T09:48:21;101591.72;;;34.86;32.65
63090;BME280;49174;43.198;27.824;2022-07-29T09:50:47;101587.25;;;34.85;32.71
63090;BME280;49174;43.198;27.824;2022-07-29T09:55:56;101581.41;;;34.78;31.82
63090;BME280;49174;43.198;27.824;2022-07-29T09:58:22;101587.97;;;34.61;32.37
63090;BME280;49174;43.198;27.824;2022-07-29T10:00:49;101579.47;;;34.69;33.10
63090;BME280;49174;43.198;27.824;2022-07-29T10:03:15;101586.03;;;34.74;32.61
63090;BME280;49174;43.198;27.824;2022-07-29T10:05:42;101589.00;;;34.77;32.39
63090;BME280;49174;43.198;27.824;2022-07-29T10:08:09;101584.19;;;34.78;32.52
63090;BME280;49174;43.198;27.824;2022-07-29T10:10:38;101589.78;;;34.99;33.48
63090;BME280;49174;43.198;27.824;2022-07-29T10:13:13;101578.19;;;35.09;33.72
63090;BME280;49174;43.198;27.824;2022-07-29T10:15:41;101582.44;;;34.94;32.81
63090;BME280;49174;43.198;27.824;2022-07-29T10:18:10;101584.75;;;34.92;33.79
63090;BME280;49174;43.198;27.824;2022-07-29T10:20:37;101585.44;;;34.89;32.99
63090;BME280;49174;43.198;27.824;2022-07-29T10:23:03;101586.31;;;34.81;32.70
63090;BME280;49174;43.198;27.824;2022-07-29T10:25:29;101588.38;;;34.72;31.02
63090;BME280;49174;43.198;27.824;2022-07-29T10:27:55;101579.41;;;34.78;31.83
63090;BME280;49174;43.198;27.824;2022-07-29T10:30:22;101580.44;;;34.74;32.08
63090;BME280;49174;43.198;27.824;2022-07-29T10:35:39;101578.13;;;34.76;32.64
63090;BME280;49174;43.198;27.824;2022-07-29T10:43:54;101578.88;;;34.64;32.32
63090;BME280;49174;43.198;27.824;2022-07-29T10:46:21;101576.41;;;34.54;32.47
63090;BME280;49174;43.198;27.824;2022-07-29T10:54:16;101577.44;;;34.79;31.68
63090;BME280;49174;43.198;27.824;2022-07-29T10:56:42;101581.84;;;34.80;31.38
63090;BME280;49174;43.198;27.824;2022-07-29T11:01:46;101582.78;;;34.72;32.28
63090;BME280;49174;43.198;27.824;2022-07-29T11:04:12;101578.50;;;34.65;34.26
63090;BME280;49174;43.198;27.824;2022-07-29T11:09:28;101576.75;;;34.82;32.18
63090;BME280;49174;43.198;27.824;2022-07-29T11:11:56;101570.44;;;34.85;32.26
63090;BME280;49174;43.198;27.824;2022-07-29T11:17:20;101568.41;;;34.94;32.53
63090;BME280;49174;43.198;27.824;2022-07-29T11:19:46;101573.72;;;34.87;32.73
63090;BME280;49174;43.198;27.824;2022-07-29T11:22:34;101572.09;;;34.86;34.31
63090;BME280;49174;43.198;27.824;2022-07-29T11:25:16;101567.22;;;34.95;35.25
63090;BME280;49174;43.198;27.824;2022-07-29T11:27:44;101566.06;;;34.96;34.64
63090;BME280;49174;43.198;27.824;2022-07-29T11:30:10;101577.75;;;34.98;35.35
63090;BME280;49174;43.198;27.824;2022-07-29T11:32:42;101567.63;;;34.85;35.25
63090;BME280;49174;43.198;27.824;2022-07-29T11:35:24;101566.59;;;34.68;36.16
63090;BME280;49174;43.198;27.824;2022-07-29T11:38:26;101560.06;;;34.64;35.70
63090;BME280;49174;43.198;27.824;2022-07-29T11:43:46;101564.59;;;34.78;34.80
63090;BME280;49174;43.198;27.824;2022-07-29T11:46:12;101563.78;;;34.77;36.06
63090;BME280;49174;43.198;27.824;2022-07-29T11:48:42;101556.25;;;34.69;37.00
63090;BME280;49174;43.198;27.824;2022-07-29T11:51:11;101559.56;;;34.62;35.33
63090;BME280;49174;43.198;27.824;2022-07-29T11:53:38;101558.69;;;34.70;37.42
63090;BME280;49174;43.198;27.824;2022-07-29T11:56:08;101557.31;;;34.77;37.47
63090;BME280;49174;43.198;27.824;2022-07-29T11:58:34;101541.06;;;34.91;37.81
63090;BME280;49174;43.198;27.824;2022-07-29T12:01:01;101546.38;;;34.84;36.48
63090;BME280;49174;43.198;27.824;2022-07-29T12:03:28;101549.78;;;34.47;37.67
63090;BME280;49174;43.198;27.824;2022-07-29T12:05:54;101550.50;;;34.36;38.59
63090;BME280;49174;43.198;27.824;2022-07-29T12:08:21;101544.97;;;34.27;37.85
63090;BME280;49174;43.198;27.824;2022-07-29T12:10:48;101532.66;;;34.19;38.19
63090;BME280;49174;43.198;27.824;2022-07-29T12:13:17;101535.66;;;34.14;36.80
63090;BME280;49174;43.198;27.824;2022-07-29T12:15:55;101535.84;;;34.00;37.02
63090;BME280;49174;43.198;27.824;2022-07-29T12:18:22;101532.28;;;33.91;38.00
63090;BME280;49174;43.198;27.824;2022-07-29T12:20:48;101521.84;;;34.00;37.65
63090;BME280;49174;43.198;27.824;2022-07-29T12:23:15;101522.34;;;34.02;36.72
63090;BME280;49174;43.198;27.824;2022-07-29T12:25:43;101528.94;;;33.98;36.63
63090;BME280;49174;43.198;27.824;2022-07-29T12:28:12;101518.75;;;33.93;36.33
63090;BME280;49174;43.198;27.824;2022-07-29T12:30:44;101518.09;;;33.96;37.09
63090;BME280;49174;43.198;27.824;2022-07-29T12:33:30;101504.28;;;33.91;35.09
63090;BME280;49174;43.198;27.824;2022-07-29T12:35:58;101518.59;;;33.90;36.65
63090;BME280;49174;43.198;27.824;2022-07-29T12:38:24;101517.41;;;34.08;36.51
63090;BME280;49174;43.198;27.824;2022-07-29T12:40:52;101513.25;;;34.14;34.56
63090;BME280;49174;43.198;27.824;2022-07-29T12:43:22;101508.06;;;34.25;34.91
63090;BME280;49174;43.198;27.824;2022-07-29T12:45:52;101512.22;;;34.19;33.76
63090;BME280;49174;43.198;27.824;2022-07-29T12:48:33;101507.34;;;34.07;36.03
63090;BME280;49174;43.198;27.824;2022-07-29T12:51:00;101498.34;;;33.93;35.92
63090;BME280;49174;43.198;27.824;2022-07-29T12:53:27;101499.75;;;33.78;36.36
63090;BME280;49174;43.198;27.824;2022-07-29T12:55:54;101512.09;;;33.68;38.16
63090;BME280;49174;43.198;27.824;2022-07-29T12:58:31;101503.53;;;33.73;38.99
63090;BME280;49174;43.198;27.824;2022-07-29T13:03:54;101496.66;;;33.62;36.62
63090;BME280;49174;43.198;27.824;2022-07-29T13:06:42;101500.22;;;33.33;38.49
63090;BME280;49174;43.198;27.824;2022-07-29T13:09:14;101492.81;;;33.28;39.15
63090;BME280;49174;43.198;27.824;2022-07-29T13:11:47;101495.56;;;33.37;37.41
63090;BME280;49174;43.198;27.824;2022-07-29T13:14:42;101499.00;;;33.43;38.89
63090;BME280;49174;43.198;27.824;2022-07-29T13:17:14;101495.06;;;33.44;40.22
63090;BME280;49174;43.198;27.824;2022-07-29T13:19:43;101494.75;;;33.36;39.47
63090;BME280;49174;43.198;27.824;2022-07-29T13:22:13;101495.28;;;33.30;40.04
63090;BME280;49174;43.198;27.824;2022-07-29T13:24:51;101493.81;;;33.15;39.24